Ayer, MA (01432)

8:25 PM EDT on July 30, 2016 (GMT -0400)
Ayer Center | | Change Station

Elev 230 ft 42.56 °N, 71.59 °W | Updated 4 seconds ago

Clear
Clear
78.8 °F
Feels Like 78 °F
N
0.0
Wind Variable Wind from South
Gusts 0.0 mph

Today
High -- | Low -- °F
--% Chance of Precip.
Yesterday
High -- | Low -- °F
Precip. -- in
Pressure 30.04 in
Visibility 10.0 miles
Clouds Clear
Heat Index 78 °F
Dew Point 37 °F
Humidity 22%
Rainfall 0.00 in
Snow Depth Not available.
5:36 AM 8:08 PM
Waning Crescent, 10% visible
METAR KFIT 302352Z AUTO 00000KT 10SM CLR 27/17 A3004 RMK AO2 SLP170 T02720172 10306 20272 53012
Pressure 30.04 in
Visibility 10.0 miles
Clouds Clear
Heat Index 78 °F
Dew Point 37 °F
Humidity 22%
Rainfall 0.00 in
Snow Depth Not available.
5:36 AM 8:08 PM
Waning Crescent, 10% visible
METAR KFIT 302352Z AUTO 00000KT 10SM CLR 27/17 A3004 RMK AO2 SLP170 T02720172 10306 20272 53012

10-Day Weather Forecast

Almanac

Astronomy

Jul. 30, 2016 Rise Set
Actual Time
Civil Twilight
Nautical Twilight
Astronomical Twilight
Moon
Length of Visible Light
Length of Day
Tomorrow will be .
, % of the Moon is Illuminated

Today's Extremes

State Highs State Lows

Community

WunderPhotos

Upload Photos

1,928,682 photos uploaded!

WunderBlog® & News

Nearby

Air Quality

  Air Quality AQ Index Pollutant
Not available.

Snow Depth

Station Depth Elevation

Earthquake Activity

City Distance Mag. Time & Date
Minimum magnitude displayed is 2.5.

Coastal Water Temperatures

Place Temperature

Stations

Nearby Weather Stations

Station Location Temp. Windchill Dew Point Humidity Wind Precip. Elev Updated Type
                   

Watches & Warnings

There are currently no watches in effect.